sensor_id;sensor_type;location;lat;lon;timestamp;temperature;humidity
12254;DHT22;6189;52.526;13.390;2023-04-01T00:02:41;13.40;99.90
12254;DHT22;6189;52.526;13.390;2023-04-01T00:05:26;13.40;99.90
12254;DHT22;6189;52.526;13.390;2023-04-01T00:08:12;13.20;99.90
12254;DHT22;6189;52.526;13.390;2023-04-01T00:10:58;13.10;99.90
12254;DHT22;6189;52.526;13.390;2023-04-01T00:13:44;13.30;99.90
12254;DHT22;6189;52.526;13.390;2023-04-01T00:16:31;13.10;99.90
12254;DHT22;6189;52.526;13.390;2023-04-01T00:19:17;13.20;99.90
12254;DHT22;6189;52.526;13.390;2023-04-01T00:22:03;13.30;99.90
12254;DHT22;6189;52.526;13.390;2023-04-01T00:24:48;13.30;99.90
12254;DHT22;6189;52.526;13.390;2023-04-01T00:27:34;13.30;99.90
12254;DHT22;6189;52.526;13.390;2023-04-01T00:30:19;13.20;99.90
12254;DHT22;6189;52.526;13.390;2023-04-01T00:33:07;13.30;99.90
12254;DHT22;6189;52.526;13.390;2023-04-01T00:35:52;13.30;99.90
12254;DHT22;6189;52.526;13.390;2023-04-01T00:38:38;13.30;99.90
12254;DHT22;6189;52.526;13.390;2023-04-01T00:41:24;13.30;99.90
12254;DHT22;6189;52.526;13.390;2023-04-01T00:44:18;13.40;99.90
12254;DHT22;6189;52.526;13.390;2023-04-01T00:47:05;13.30;99.90
12254;DHT22;6189;52.526;13.390;2023-04-01T00:49:53;13.40;99.90
12254;DHT22;6189;52.526;13.390;2023-04-01T00:52:40;13.40;99.90
12254;DHT22;6189;52.526;13.390;2023-04-01T00:55:27;13.40;99.90
12254;DHT22;6189;52.526;13.390;2023-04-01T00:58:17;13.40;99.90
12254;DHT22;6189;52.526;13.390;2023-04-01T01:01:04;13.40;99.90
12254;DHT22;6189;52.526;13.390;2023-04-01T01:03:50;13.40;99.90
12254;DHT22;6189;52.526;13.390;2023-04-01T01:06:46;13.10;99.90
12254;DHT22;6189;52.526;13.390;2023-04-01T01:09:43;13.20;99.90
12254;DHT22;6189;52.526;13.390;2023-04-01T01:12:37;13.10;99.90
12254;DHT22;6189;52.526;13.390;2023-04-01T01:15:28;13.20;99.90
12254;DHT22;6189;52.526;13.390;2023-04-01T01:18:19;13.20;99.90
12254;DHT22;6189;52.526;13.390;2023-04-01T01:27:54;13.20;99.90
12254;DHT22;6189;52.526;13.390;2023-04-01T01:30:50;13.20;99.90
12254;DHT22;6189;52.526;13.390;2023-04-01T01:33:53;13.20;99.90
12254;DHT22;6189;52.526;13.390;2023-04-01T01:36:44;13.30;99.90
12254;DHT22;6189;52.526;13.390;2023-04-01T01:39:32;13.20;99.90
12254;DHT22;6189;52.526;13.390;2023-04-01T01:42:20;13.30;99.90
12254;DHT22;6189;52.526;13.390;2023-04-01T01:45:09;13.30;99.90
12254;DHT22;6189;52.526;13.390;2023-04-01T01:47:56;13.10;99.90
12254;DHT22;6189;52.526;13.390;2023-04-01T01:50:44;13.20;99.90
12254;DHT22;6189;52.526;13.390;2023-04-01T01:53:32;13.20;99.90
12254;DHT22;6189;52.526;13.390;2023-04-01T01:56:18;13.20;99.90
12254;DHT22;6189;52.526;13.390;2023-04-01T01:59:08;13.20;99.90
12254;DHT22;6189;52.526;13.390;2023-04-01T02:01:56;13.20;99.90
12254;DHT22;6189;52.526;13.390;2023-04-01T02:04:44;13.20;99.90
12254;DHT22;6189;52.526;13.390;2023-04-01T02:07:33;13.10;99.90
12254;DHT22;6189;52.526;13.390;2023-04-01T02:10:22;13.10;99.90
12254;DHT22;6189;52.526;13.390;2023-04-01T02:13:16;13.10;99.90
12254;DHT22;6189;52.526;13.390;2023-04-01T02:16:07;13.20;99.90
12254;DHT22;6189;52.526;13.390;2023-04-01T02:18:55;13.10;99.90
12254;DHT22;6189;52.526;13.390;2023-04-01T02:21:42;13.10;99.90
12254;DHT22;6189;52.526;13.390;2023-04-01T02:24:31;13.10;99.90
12254;DHT22;6189;52.526;13.390;2023-04-01T02:27:19;13.10;99.90
12254;DHT22;6189;52.526;13.390;2023-04-01T02:30:07;13.10;99.90
12254;DHT22;6189;52.526;13.390;2023-04-01T02:32:53;13.20;99.90
12254;DHT22;6189;52.526;13.390;2023-04-01T02:35:40;13.20;99.90
12254;DHT22;6189;52.526;13.390;2023-04-01T02:38:26;13.00;99.90
12254;DHT22;6189;52.526;13.390;2023-04-01T02:41:12;13.00;99.90
12254;DHT22;6189;52.526;13.390;2023-04-01T02:43:59;13.10;99.90
12254;DHT22;6189;52.526;13.390;2023-04-01T02:46:44;13.10;99.90
12254;DHT22;6189;52.526;13.390;2023-04-01T02:49:30;13.20;99.90
12254;DHT22;6189;52.526;13.390;2023-04-01T02:52:15;13.30;99.90
12254;DHT22;6189;52.526;13.390;2023-04-01T02:55:01;13.30;99.90
12254;DHT22;6189;52.526;13.390;2023-04-01T02:57:47;13.20;99.90
12254;DHT22;6189;52.526;13.390;2023-04-01T03:00:34;13.10;99.90
12254;DHT22;6189;52.526;13.390;2023-04-01T03:03:20;13.20;99.90
12254;DHT22;6189;52.526;13.390;2023-04-01T03:06:06;12.80;99.90
12254;DHT22;6189;52.526;13.390;2023-04-01T03:08:52;12.90;99.90
12254;DHT22;6189;52.526;13.390;2023-04-01T03:11:38;12.90;99.90
12254;DHT22;6189;52.526;13.390;2023-04-01T03:14:24;13.00;99.90
12254;DHT22;6189;52.526;13.390;2023-04-01T03:17:11;13.10;99.90
12254;DHT22;6189;52.526;13.390;2023-04-01T03:19:57;13.20;99.90
12254;DHT22;6189;52.526;13.390;2023-04-01T03:22:43;13.30;99.90
12254;DHT22;6189;52.526;13.390;2023-04-01T03:25:28;13.30;99.90
12254;DHT22;6189;52.526;13.390;2023-04-01T03:28:14;13.20;99.90
12254;DHT22;6189;52.526;13.390;2023-04-01T03:31:00;13.10;99.90
12254;DHT22;6189;52.526;13.390;2023-04-01T03:33:47;13.00;99.90
12254;DHT22;6189;52.526;13.390;2023-04-01T03:36:33;13.10;99.90
12254;DHT22;6189;52.526;13.390;2023-04-01T03:39:18;13.20;99.90
12254;DHT22;6189;52.526;13.390;2023-04-01T03:42:04;13.20;99.90
12254;DHT22;6189;52.526;13.390;2023-04-01T03:44:50;13.10;99.90
12254;DHT22;6189;52.526;13.390;2023-04-01T03:47:36;13.10;99.90
12254;DHT22;6189;52.526;13.390;2023-04-01T03:50:23;13.10;99.90
12254;DHT22;6189;52.526;13.390;2023-04-01T03:53:10;12.90;99.90
12254;DHT22;6189;52.526;13.390;2023-04-01T03:55:55;12.90;99.90
12254;DHT22;6189;52.526;13.390;2023-04-01T03:58:41;13.00;99.90
12254;DHT22;6189;52.526;13.390;2023-04-01T04:01:27;13.00;99.90
12254;DHT22;6189;52.526;13.390;2023-04-01T04:04:13;13.20;99.90
12254;DHT22;6189;52.526;13.390;2023-04-01T04:07:00;13.20;99.90
12254;DHT22;6189;52.526;13.390;2023-04-01T04:09:46;13.20;99.90
12254;DHT22;6189;52.526;13.390;2023-04-01T04:12:32;13.20;99.90
12254;DHT22;6189;52.526;13.390;2023-04-01T04:15:18;13.20;99.90
12254;DHT22;6189;52.526;13.390;2023-04-01T04:18:04;13.10;99.90
12254;DHT22;6189;52.526;13.390;2023-04-01T04:20:49;13.00;99.90
12254;DHT22;6189;52.526;13.390;2023-04-01T04:23:37;13.10;99.90
12254;DHT22;6189;52.526;13.390;2023-04-01T04:26:22;13.20;99.90
12254;DHT22;6189;52.526;13.390;2023-04-01T04:29:08;13.20;99.90
12254;DHT22;6189;52.526;13.390;2023-04-01T04:31:53;13.10;99.90
12254;DHT22;6189;52.526;13.390;2023-04-01T04:34:39;13.20;99.90
12254;DHT22;6189;52.526;13.390;2023-04-01T04:37:25;13.20;99.90
12254;DHT22;6189;52.526;13.390;2023-04-01T04:40:12;13.10;99.90
12254;DHT22;6189;52.526;13.390;2023-04-01T04:42:58;13.20;99.90
12254;DHT22;6189;52.526;13.390;2023-04-01T04:45:44;12.90;99.90
12254;DHT22;6189;52.526;13.390;2023-04-01T04:48:30;12.90;99.90
12254;DHT22;6189;52.526;13.390;2023-04-01T04:51:16;12.90;99.90
12254;DHT22;6189;52.526;13.390;2023-04-01T04:54:02;12.80;99.90
12254;DHT22;6189;52.526;13.390;2023-04-01T04:56:51;12.90;99.90
12254;DHT22;6189;52.526;13.390;2023-04-01T04:59:37;13.00;99.90
12254;DHT22;6189;52.526;13.390;2023-04-01T05:02:22;13.10;99.90
12254;DHT22;6189;52.526;13.390;2023-04-01T05:05:08;13.10;99.90
12254;DHT22;6189;52.526;13.390;2023-04-01T05:07:54;13.00;99.90
12254;DHT22;6189;52.526;13.390;2023-04-01T05:10:40;13.10;99.90
12254;DHT22;6189;52.526;13.390;2023-04-01T05:13:27;12.90;99.90
12254;DHT22;6189;52.526;13.390;2023-04-01T05:16:15;13.00;99.90
12254;DHT22;6189;52.526;13.390;2023-04-01T05:19:01;13.10;99.90
12254;DHT22;6189;52.526;13.390;2023-04-01T05:21:47;13.20;99.90
12254;DHT22;6189;52.526;13.390;2023-04-01T05:24:33;13.30;99.90
12254;DHT22;6189;52.526;13.390;2023-04-01T05:27:19;13.30;99.90
12254;DHT22;6189;52.526;13.390;2023-04-01T05:30:07;13.20;99.90
12254;DHT22;6189;52.526;13.390;2023-04-01T05:32:52;13.10;99.90
12254;DHT22;6189;52.526;13.390;2023-04-01T05:35:38;13.20;99.90
12254;DHT22;6189;52.526;13.390;2023-04-01T05:38:24;13.30;99.90
12254;DHT22;6189;52.526;13.390;2023-04-01T05:41:10;13.20;99.90
12254;DHT22;6189;52.526;13.390;2023-04-01T05:43:55;13.20;99.90
12254;DHT22;6189;52.526;13.390;2023-04-01T05:46:42;13.30;99.90
12254;DHT22;6189;52.526;13.390;2023-04-01T05:49:29;13.30;99.90
12254;DHT22;6189;52.526;13.390;2023-04-01T05:52:14;13.40;99.90
12254;DHT22;6189;52.526;13.390;2023-04-01T05:55:00;13.30;99.90
12254;DHT22;6189;52.526;13.390;2023-04-01T05:57:46;13.40;99.90
12254;DHT22;6189;52.526;13.390;2023-04-01T06:00:32;13.30;99.90
12254;DHT22;6189;52.526;13.390;2023-04-01T06:03:19;13.30;99.90
12254;DHT22;6189;52.526;13.390;2023-04-01T06:06:10;13.40;99.90
12254;DHT22;6189;52.526;13.390;2023-04-01T06:09:07;13.30;99.90
12254;DHT22;6189;52.526;13.390;2023-04-01T06:12:17;13.40;99.90
12254;DHT22;6189;52.526;13.390;2023-04-01T06:15:14;13.40;99.90
12254;DHT22;6189;52.526;13.390;2023-04-01T06:25:07;13.30;99.90
12254;DHT22;6189;52.526;13.390;2023-04-01T06:28:16;13.30;99.90
12254;DHT22;6189;52.526;13.390;2023-04-01T06:31:10;13.30;99.90
12254;DHT22;6189;52.526;13.390;2023-04-01T06:34:08;13.30;99.90
12254;DHT22;6189;52.526;13.390;2023-04-01T06:37:11;13.30;99.90
12254;DHT22;6189;52.526;13.390;2023-04-01T06:40:17;13.30;99.90
12254;DHT22;6189;52.526;13.390;2023-04-01T06:43:09;13.30;99.90
12254;DHT22;6189;52.526;13.390;2023-04-01T06:46:04;13.40;99.90
12254;DHT22;6189;52.526;13.390;2023-04-01T06:49:04;13.40;99.90
12254;DHT22;6189;52.526;13.390;2023-04-01T06:51:56;13.40;99.90
12254;DHT22;6189;52.526;13.390;2023-04-01T06:54:48;13.40;99.90
12254;DHT22;6189;52.526;13.390;2023-04-01T06:57:39;13.50;99.90
12254;DHT22;6189;52.526;13.390;2023-04-01T07:00:32;13.50;99.90
12254;DHT22;6189;52.526;13.390;2023-04-01T07:03:21;13.50;99.90
12254;DHT22;6189;52.526;13.390;2023-04-01T07:06:12;13.60;99.90
12254;DHT22;6189;52.526;13.390;2023-04-01T07:09:04;13.60;99.90
12254;DHT22;6189;52.526;13.390;2023-04-01T07:11:54;13.50;99.90
12254;DHT22;6189;52.526;13.390;2023-04-01T07:14:49;13.40;99.90
12254;DHT22;6189;52.526;13.390;2023-04-01T07:17:36;13.30;99.90
12254;DHT22;6189;52.526;13.390;2023-04-01T07:20:27;13.50;99.90
12254;DHT22;6189;52.526;13.390;2023-04-01T07:23:20;13.30;99.90
12254;DHT22;6189;52.526;13.390;2023-04-01T07:26:15;13.10;99.90
12254;DHT22;6189;52.526;13.390;2023-04-01T07:29:05;13.30;99.90
12254;DHT22;6189;52.526;13.390;2023-04-01T07:32:17;13.50;99.90
12254;DHT22;6189;52.526;13.390;2023-04-01T07:35:12;13.50;99.90
12254;DHT22;6189;52.526;13.390;2023-04-01T07:38:22;13.50;99.90
12254;DHT22;6189;52.526;13.390;2023-04-01T07:41:12;13.70;99.90
12254;DHT22;6189;52.526;13.390;2023-04-01T07:44:10;13.60;99.90
12254;DHT22;6189;52.526;13.390;2023-04-01T07:47:08;13.20;99.90
12254;DHT22;6189;52.526;13.390;2023-04-01T07:50:05;13.00;99.90
12254;DHT22;6189;52.526;13.390;2023-04-01T07:53:01;13.10;99.90
12254;DHT22;6189;52.526;13.390;2023-04-01T07:55:56;13.20;99.90
12254;DHT22;6189;52.526;13.390;2023-04-01T07:58:53;13.20;99.90
12254;DHT22;6189;52.526;13.390;2023-04-01T08:01:45;13.40;99.90
12254;DHT22;6189;52.526;13.390;2023-04-01T08:04:41;13.40;99.90
12254;DHT22;6189;52.526;13.390;2023-04-01T08:07:40;13.30;99.90
12254;DHT22;6189;52.526;13.390;2023-04-01T08:10:34;13.50;99.90
12254;DHT22;6189;52.526;13.390;2023-04-01T08:13:29;13.30;99.90
12254;DHT22;6189;52.526;13.390;2023-04-01T08:16:20;13.30;99.90
12254;DHT22;6189;52.526;13.390;2023-04-01T08:19:21;13.40;99.90
12254;DHT22;6189;52.526;13.390;2023-04-01T08:22:15;13.50;99.90
12254;DHT22;6189;52.526;13.390;2023-04-01T08:25:05;13.60;99.90
12254;DHT22;6189;52.526;13.390;2023-04-01T08:27:55;13.70;99.90
12254;DHT22;6189;52.526;13.390;2023-04-01T08:30:44;13.50;99.90
12254;DHT22;6189;52.526;13.390;2023-04-01T08:33:33;13.60;99.90
12254;DHT22;6189;52.526;13.390;2023-04-01T08:36:22;13.60;99.90
12254;DHT22;6189;52.526;13.390;2023-04-01T08:39:12;13.60;99.90
12254;DHT22;6189;52.526;13.390;2023-04-01T08:42:12;13.60;99.90
12254;DHT22;6189;52.526;13.390;2023-04-01T08:45:21;13.60;99.90
12254;DHT22;6189;52.526;13.390;2023-04-01T08:48:23;13.60;99.90
12254;DHT22;6189;52.526;13.390;2023-04-01T08:51:51;13.50;99.90
12254;DHT22;6189;52.526;13.390;2023-04-01T08:58:23;13.50;99.90
12254;DHT22;6189;52.526;13.390;2023-04-01T09:01:17;13.50;99.90
12254;DHT22;6189;52.526;13.390;2023-04-01T09:04:26;13.40;99.90
12254;DHT22;6189;52.526;13.390;2023-04-01T09:07:32;13.40;99.90
12254;DHT22;6189;52.526;13.390;2023-04-01T09:10:47;13.50;99.90
12254;DHT22;6189;52.526;13.390;2023-04-01T09:13:51;13.30;99.90
12254;DHT22;6189;52.526;13.390;2023-04-01T09:17:06;13.50;99.90
12254;DHT22;6189;52.526;13.390;2023-04-01T09:20:16;13.60;99.90
12254;DHT22;6189;52.526;13.390;2023-04-01T09:23:17;13.60;99.90
12254;DHT22;6189;52.526;13.390;2023-04-01T09:26:14;13.50;99.90
12254;DHT22;6189;52.526;13.390;2023-04-01T09:29:13;13.40;99.90
12254;DHT22;6189;52.526;13.390;2023-04-01T09:32:39;13.30;99.90
12254;DHT22;6189;52.526;13.390;2023-04-01T09:35:38;13.50;99.90
12254;DHT22;6189;52.526;13.390;2023-04-01T09:38:30;13.40;99.90
12254;DHT22;6189;52.526;13.390;2023-04-01T09:41:30;13.30;99.90
12254;DHT22;6189;52.526;13.390;2023-04-01T09:44:21;13.40;99.90
12254;DHT22;6189;52.526;13.390;2023-04-01T09:47:21;13.40;99.90
12254;DHT22;6189;52.526;13.390;2023-04-01T09:53:34;13.30;99.90
12254;DHT22;6189;52.526;13.390;2023-04-01T09:56:46;13.30;99.90
12254;DHT22;6189;52.526;13.390;2023-04-01T10:00:08;13.20;99.90
12254;DHT22;6189;52.526;13.390;2023-04-01T10:16:59;13.00;99.90
12254;DHT22;6189;52.526;13.390;2023-04-01T10:20:08;13.00;99.90
12254;DHT22;6189;52.526;13.390;2023-04-01T10:23:16;13.10;99.90
12254;DHT22;6189;52.526;13.390;2023-04-01T10:26:38;13.00;99.90
12254;DHT22;6189;52.526;13.390;2023-04-01T10:29:52;13.10;99.90
12254;DHT22;6189;52.526;13.390;2023-04-01T10:33:12;13.10;99.90
12254;DHT22;6189;52.526;13.390;2023-04-01T10:43:15;13.00;99.90
12254;DHT22;6189;52.526;13.390;2023-04-01T10:49:44;12.80;99.90
12254;DHT22;6189;52.526;13.390;2023-04-01T10:56:34;12.70;99.90
12254;DHT22;6189;52.526;13.390;2023-04-01T11:03:20;12.80;99.90
12254;DHT22;6189;52.526;13.390;2023-04-01T11:06:56;12.80;99.90
12254;DHT22;6189;52.526;13.390;2023-04-01T11:13:36;13.10;99.90
12254;DHT22;6189;52.526;13.390;2023-04-01T11:17:04;13.00;99.90
12254;DHT22;6189;52.526;13.390;2023-04-01T11:20:30;12.80;99.90
12254;DHT22;6189;52.526;13.390;2023-04-01T11:26:41;13.00;99.90
12254;DHT22;6189;52.526;13.390;2023-04-01T11:29:53;13.00;99.90
12254;DHT22;6189;52.526;13.390;2023-04-01T11:32:49;12.90;99.90
12254;DHT22;6189;52.526;13.390;2023-04-01T11:35:50;13.00;99.90
12254;DHT22;6189;52.526;13.390;2023-04-01T11:39:05;12.90;99.90
12254;DHT22;6189;52.526;13.390;2023-04-01T11:42:04;12.70;99.90
12254;DHT22;6189;52.526;13.390;2023-04-01T11:45:01;12.90;99.90
12254;DHT22;6189;52.526;13.390;2023-04-01T11:48:08;12.60;99.90
12254;DHT22;6189;52.526;13.390;2023-04-01T11:51:17;12.60;99.90
12254;DHT22;6189;52.526;13.390;2023-04-01T11:54:14;12.60;99.90
12254;DHT22;6189;52.526;13.390;2023-04-01T11:57:31;12.80;99.90
12254;DHT22;6189;52.526;13.390;2023-04-01T12:00:43;12.80;99.90
12254;DHT22;6189;52.526;13.390;2023-04-01T12:03:51;12.80;99.90
12254;DHT22;6189;52.526;13.390;2023-04-01T12:06:44;12.70;99.90
12254;DHT22;6189;52.526;13.390;2023-04-01T12:09:41;12.50;99.90
12254;DHT22;6189;52.526;13.390;2023-04-01T12:12:38;12.60;99.90
12254;DHT22;6189;52.526;13.390;2023-04-01T12:15:33;12.70;99.90
12254;DHT22;6189;52.526;13.390;2023-04-01T12:18:23;12.80;99.90
12254;DHT22;6189;52.526;13.390;2023-04-01T12:21:21;12.70;99.90
12254;DHT22;6189;52.526;13.390;2023-04-01T12:24:44;12.60;99.90
12254;DHT22;6189;52.526;13.390;2023-04-01T12:27:43;12.50;99.90
12254;DHT22;6189;52.526;13.390;2023-04-01T12:30:47;12.50;99.90
12254;DHT22;6189;52.526;13.390;2023-04-01T12:34:00;12.50;99.90
12254;DHT22;6189;52.526;13.390;2023-04-01T12:36:56;12.40;99.90
12254;DHT22;6189;52.526;13.390;2023-04-01T12:40:01;12.30;99.90
12254;DHT22;6189;52.526;13.390;2023-04-01T12:42:59;12.30;99.90
12254;DHT22;6189;52.526;13.390;2023-04-01T12:45:57;12.10;99.90
12254;DHT22;6189;52.526;13.390;2023-04-01T12:49:12;12.20;99.90
12254;DHT22;6189;52.526;13.390;2023-04-01T12:52:08;12.10;99.90
12254;DHT22;6189;52.526;13.390;2023-04-01T12:55:19;12.30;99.90
12254;DHT22;6189;52.526;13.390;2023-04-01T13:02:01;12.50;99.90
12254;DHT22;6189;52.526;13.390;2023-04-01T13:05:11;12.50;99.90
12254;DHT22;6189;52.526;13.390;2023-04-01T13:08:15;12.40;99.90
12254;DHT22;6189;52.526;13.390;2023-04-01T13:11:10;12.40;99.90
12254;DHT22;6189;52.526;13.390;2023-04-01T13:14:15;12.60;99.90
12254;DHT22;6189;52.526;13.390;2023-04-01T13:17:10;12.50;99.90
12254;DHT22;6189;52.526;13.390;2023-04-01T13:20:03;12.50;99.90
12254;DHT22;6189;52.526;13.390;2023-04-01T13:23:02;12.50;99.90
12254;DHT22;6189;52.526;13.390;2023-04-01T13:26:00;12.50;99.90
12254;DHT22;6189;52.526;13.390;2023-04-01T13:28:54;12.50;99.90
12254;DHT22;6189;52.526;13.390;2023-04-01T13:31:56;12.50;99.90
12254;DHT22;6189;52.526;13.390;2023-04-01T13:34:56;12.50;99.90
12254;DHT22;6189;52.526;13.390;2023-04-01T13:38:05;12.30;99.90
12254;DHT22;6189;52.526;13.390;2023-04-01T13:41:01;12.30;99.90
12254;DHT22;6189;52.526;13.390;2023-04-01T13:43:58;12.30;99.90
12254;DHT22;6189;52.526;13.390;2023-04-01T13:50:22;12.00;99.90
12254;DHT22;6189;52.526;13.390;2023-04-01T13:53:29;11.50;99.90
12254;DHT22;6189;52.526;13.390;2023-04-01T13:56:32;11.30;99.90
12254;DHT22;6189;52.526;13.390;2023-04-01T13:59:45;11.70;99.90
12254;DHT22;6189;52.526;13.390;2023-04-01T14:02:50;11.90;99.90
12254;DHT22;6189;52.526;13.390;2023-04-01T14:05:47;12.10;99.90
12254;DHT22;6189;52.526;13.390;2023-04-01T14:12:05;12.10;99.90
12254;DHT22;6189;52.526;13.390;2023-04-01T14:15:07;12.20;99.90
12254;DHT22;6189;52.526;13.390;2023-04-01T14:18:20;12.30;99.90
12254;DHT22;6189;52.526;13.390;2023-04-01T14:21:20;12.20;99.90
12254;DHT22;6189;52.526;13.390;2023-04-01T14:24:20;12.30;99.90
12254;DHT22;6189;52.526;13.390;2023-04-01T14:27:26;12.30;99.90
12254;DHT22;6189;52.526;13.390;2023-04-01T14:33:40;12.20;99.90
12254;DHT22;6189;52.526;13.390;2023-04-01T14:36:36;12.20;99.90
12254;DHT22;6189;52.526;13.390;2023-04-01T14:39:38;12.20;99.90
12254;DHT22;6189;52.526;13.390;2023-04-01T14:42:44;12.30;99.90
12254;DHT22;6189;52.526;13.390;2023-04-01T14:45:46;12.20;99.90
12254;DHT22;6189;52.526;13.390;2023-04-01T14:48:37;12.20;99.90
12254;DHT22;6189;52.526;13.390;2023-04-01T14:51:33;12.20;99.90
12254;DHT22;6189;52.526;13.390;2023-04-01T14:54:29;11.90;99.90
12254;DHT22;6189;52.526;13.390;2023-04-01T14:57:23;11.90;99.90
12254;DHT22;6189;52.526;13.390;2023-04-01T15:00:14;12.00;99.90
12254;DHT22;6189;52.526;13.390;2023-04-01T15:03:06;11.80;99.90
12254;DHT22;6189;52.526;13.390;2023-04-01T15:06:01;11.70;99.90
12254;DHT22;6189;52.526;13.390;2023-04-01T15:08:57;11.80;99.90
12254;DHT22;6189;52.526;13.390;2023-04-01T15:11:54;11.90;99.90
12254;DHT22;6189;52.526;13.390;2023-04-01T15:15:02;11.80;99.90
12254;DHT22;6189;52.526;13.390;2023-04-01T15:18:08;11.90;99.90
12254;DHT22;6189;52.526;13.390;2023-04-01T15:21:18;11.70;99.90
12254;DHT22;6189;52.526;13.390;2023-04-01T15:24:07;11.60;99.90
12254;DHT22;6189;52.526;13.390;2023-04-01T15:27:27;11.70;99.90
12254;DHT22;6189;52.526;13.390;2023-04-01T15:33:51;11.70;99.90
12254;DHT22;6189;52.526;13.390;2023-04-01T15:36:44;11.80;99.90
12254;DHT22;6189;52.526;13.390;2023-04-01T15:39:45;11.90;99.90
12254;DHT22;6189;52.526;13.390;2023-04-01T15:42:49;11.90;99.90
12254;DHT22;6189;52.526;13.390;2023-04-01T15:45:47;11.80;99.90
12254;DHT22;6189;52.526;13.390;2023-04-01T15:48:44;11.70;99.90
12254;DHT22;6189;52.526;13.390;2023-04-01T15:51:48;11.80;99.90
12254;DHT22;6189;52.526;13.390;2023-04-01T15:58:17;11.70;99.90
12254;DHT22;6189;52.526;13.390;2023-04-01T16:01:15;11.70;99.90
12254;DHT22;6189;52.526;13.390;2023-04-01T16:04:17;11.70;99.90
12254;DHT22;6189;52.526;13.390;2023-04-01T16:07:23;11.70;99.90
12254;DHT22;6189;52.526;13.390;2023-04-01T16:10:22;11.70;99.90
12254;DHT22;6189;52.526;13.390;2023-04-01T16:13:24;11.50;99.90
12254;DHT22;6189;52.526;13.390;2023-04-01T16:16:18;11.40;99.90
12254;DHT22;6189;52.526;13.390;2023-04-01T16:19:21;11.10;99.90
12254;DHT22;6189;52.526;13.390;2023-04-01T16:22:13;11.20;99.90
12254;DHT22;6189;52.526;13.390;2023-04-01T16:25:17;11.30;99.90
12254;DHT22;6189;52.526;13.390;2023-04-01T16:28:18;11.20;99.90
12254;DHT22;6189;52.526;13.390;2023-04-01T16:31:09;11.20;99.90
12254;DHT22;6189;52.526;13.390;2023-04-01T16:34:03;11.30;99.90
12254;DHT22;6189;52.526;13.390;2023-04-01T16:36:52;11.30;99.90
12254;DHT22;6189;52.526;13.390;2023-04-01T16:39:45;11.30;99.90
12254;DHT22;6189;52.526;13.390;2023-04-01T16:42:42;11.30;99.90
12254;DHT22;6189;52.526;13.390;2023-04-01T16:45:33;11.00;99.90
12254;DHT22;6189;52.526;13.390;2023-04-01T16:48:27;10.80;99.90
12254;DHT22;6189;52.526;13.390;2023-04-01T16:51:15;10.80;99.90
12254;DHT22;6189;52.526;13.390;2023-04-01T16:54:05;10.70;99.90
12254;DHT22;6189;52.526;13.390;2023-04-01T16:57:03;10.70;99.90
12254;DHT22;6189;52.526;13.390;2023-04-01T16:59:58;10.90;99.90
12254;DHT22;6189;52.526;13.390;2023-04-01T17:02:49;10.90;99.90
12254;DHT22;6189;52.526;13.390;2023-04-01T17:05:54;11.00;99.90
12254;DHT22;6189;52.526;13.390;2023-04-01T17:08:52;11.00;99.90
12254;DHT22;6189;52.526;13.390;2023-04-01T17:11:48;11.10;99.90
12254;DHT22;6189;52.526;13.390;2023-04-01T17:14:43;11.10;99.90
12254;DHT22;6189;52.526;13.390;2023-04-01T17:17:42;11.00;99.90
12254;DHT22;6189;52.526;13.390;2023-04-01T17:20:40;11.00;99.90
12254;DHT22;6189;52.526;13.390;2023-04-01T17:23:30;10.90;99.90
12254;DHT22;6189;52.526;13.390;2023-04-01T17:26:26;10.80;99.90
12254;DHT22;6189;52.526;13.390;2023-04-01T17:29:21;10.90;99.90
12254;DHT22;6189;52.526;13.390;2023-04-01T17:32:13;10.60;99.90
12254;DHT22;6189;52.526;13.390;2023-04-01T17:35:06;10.70;99.90
12254;DHT22;6189;52.526;13.390;2023-04-01T17:38:02;10.20;99.90
12254;DHT22;6189;52.526;13.390;2023-04-01T17:41:00;10.30;99.90
12254;DHT22;6189;52.526;13.390;2023-04-01T17:43:52;10.30;99.90
12254;DHT22;6189;52.526;13.390;2023-04-01T17:47:09;10.00;99.90
12254;DHT22;6189;52.526;13.390;2023-04-01T17:50:07;9.90;99.90
12254;DHT22;6189;52.526;13.390;2023-04-01T17:53:12;10.20;99.90
12254;DHT22;6189;52.526;13.390;2023-04-01T17:56:08;10.20;99.90
12254;DHT22;6189;52.526;13.390;2023-04-01T17:59:00;10.10;99.90
12254;DHT22;6189;52.526;13.390;2023-04-01T18:01:54;10.20;99.90
12254;DHT22;6189;52.526;13.390;2023-04-01T18:04:55;10.40;99.90
12254;DHT22;6189;52.526;13.390;2023-04-01T18:08:07;10.40;99.90
12254;DHT22;6189;52.526;13.390;2023-04-01T18:11:04;10.40;99.90
12254;DHT22;6189;52.526;13.390;2023-04-01T18:14:03;10.50;99.90
12254;DHT22;6189;52.526;13.390;2023-04-01T18:17:04;9.90;99.90
12254;DHT22;6189;52.526;13.390;2023-04-01T18:20:06;10.00;99.90
12254;DHT22;6189;52.526;13.390;2023-04-01T18:22:59;10.10;99.90
12254;DHT22;6189;52.526;13.390;2023-04-01T18:25:48;10.20;99.90
12254;DHT22;6189;52.526;13.390;2023-04-01T18:28:38;10.20;99.90
12254;DHT22;6189;52.526;13.390;2023-04-01T18:31:27;10.20;99.90
12254;DHT22;6189;52.526;13.390;2023-04-01T18:34:32;9.90;99.90
12254;DHT22;6189;52.526;13.390;2023-04-01T18:37:27;10.10;99.90
12254;DHT22;6189;52.526;13.390;2023-04-01T18:40:19;10.20;99.90
12254;DHT22;6189;52.526;13.390;2023-04-01T18:43:17;9.90;99.90
12254;DHT22;6189;52.526;13.390;2023-04-01T18:46:12;9.90;99.90
12254;DHT22;6189;52.526;13.390;2023-04-01T18:49:10;10.00;99.90
12254;DHT22;6189;52.526;13.390;2023-04-01T18:52:03;10.10;99.90
12254;DHT22;6189;52.526;13.390;2023-04-01T18:58:22;10.20;99.90
12254;DHT22;6189;52.526;13.390;2023-04-01T19:01:18;10.10;99.90
12254;DHT22;6189;52.526;13.390;2023-04-01T19:04:14;10.10;99.90
12254;DHT22;6189;52.526;13.390;2023-04-01T19:10:28;10.30;99.90
12254;DHT22;6189;52.526;13.390;2023-04-01T19:13:25;9.80;99.90
12254;DHT22;6189;52.526;13.390;2023-04-01T19:16:21;9.90;99.90
12254;DHT22;6189;52.526;13.390;2023-04-01T19:19:34;9.90;99.90
12254;DHT22;6189;52.526;13.390;2023-04-01T19:22:40;9.90;99.90
12254;DHT22;6189;52.526;13.390;2023-04-01T19:25:36;9.90;99.90
12254;DHT22;6189;52.526;13.390;2023-04-01T19:28:34;10.00;99.90
12254;DHT22;6189;52.526;13.390;2023-04-01T19:31:38;10.00;99.90
12254;DHT22;6189;52.526;13.390;2023-04-01T19:34:31;9.80;99.90
12254;DHT22;6189;52.526;13.390;2023-04-01T19:37:31;9.90;99.90
12254;DHT22;6189;52.526;13.390;2023-04-01T19:40:30;9.90;99.90
12254;DHT22;6189;52.526;13.390;2023-04-01T19:43:32;10.00;99.90
12254;DHT22;6189;52.526;13.390;2023-04-01T19:46:27;9.80;99.90
12254;DHT22;6189;52.526;13.390;2023-04-01T19:49:40;9.80;99.90
12254;DHT22;6189;52.526;13.390;2023-04-01T19:52:31;9.80;99.90
12254;DHT22;6189;52.526;13.390;2023-04-01T19:55:29;9.80;99.90
12254;DHT22;6189;52.526;13.390;2023-04-01T19:58:24;9.80;99.90